Time;durP1;ratioP1;P1;durP2;ratioP2;P2;SDS_P1;SDS_P2;PMS_P1;PMS_P2;Temp;Humidity;BMP_temperature;BMP_pressure;BME280_temperature;BME280_humidity;BME280_pressure;Samples;Min_cycle;Max_cycle;Signal;HPM_P1;HPM_P2
2024/01/30 00:00:28;;;;;;;44.10;25.90;;;;;;;0.49;86.62;101826.45;102575;1267;111405;-65
2024/01/30 00:03:15;;;;;;;44.70;27.30;;;;;;;0.49;86.69;101830.39;102301;1270;138983;-65
2024/01/30 00:05:42;;;;;;;48.10;27.70;;;;;;;0.52;86.75;101826.73;102472;1267;97818;-65
2024/01/30 00:08:09;;;;;;;46.20;29.00;;;;;;;0.52;86.77;101818.16;102735;1267;138557;-64
2024/01/30 00:10:38;;;;;;;45.50;28.40;;;;;;;0.51;86.93;101817.95;102442;1267;97905;-65
2024/01/30 00:13:05;;;;;;;50.70;29.80;;;;;;;0.48;86.67;101804.35;102447;1268;110768;-65
2024/01/30 00:15:32;;;;;;;46.20;27.30;;;;;;;0.43;87.01;101807.10;102329;1267;138819;-65
2024/01/30 00:17:59;;;;;;;46.90;27.10;;;;;;;0.41;87.06;101809.75;102447;1267;97904;-65
2024/01/30 00:20:26;;;;;;;45.20;25.50;;;;;;;0.38;87.13;101808.46;102195;1267;139202;-65
2024/01/30 00:22:53;;;;;;;44.80;26.70;;;;;;;0.38;87.24;101805.04;102459;1273;97819;-64
2024/01/30 00:25:20;;;;;;;51.30;27.80;;;;;;;0.39;87.30;101810.05;102477;1273;111892;-65
2024/01/30 00:27:47;;;;;;;47.40;29.00;;;;;;;0.39;87.06;101806.62;102322;1267;138005;-65
2024/01/30 00:30:15;;;;;;;49.40;29.30;;;;;;;0.39;87.18;101809.17;102452;1266;97808;-65
2024/01/30 00:32:42;;;;;;;49.30;29.10;;;;;;;0.37;86.96;101806.73;102460;1267;137780;-65
2024/01/30 00:35:10;;;;;;;47.70;27.60;;;;;;;0.33;87.17;101808.45;102466;1270;97694;-65
2024/01/30 00:37:37;;;;;;;43.40;26.20;;;;;;;0.32;87.03;101808.40;102463;1267;112297;-65
2024/01/30 00:40:05;;;;;;;40.60;26.00;;;;;;;0.31;87.08;101807.70;102353;1271;138673;-65
2024/01/30 00:42:33;;;;;;;43.90;25.60;;;;;;;0.31;87.00;101808.23;102921;1267;98115;-65
2024/01/30 00:45:00;;;;;;;42.70;25.80;;;;;;;0.33;87.04;101810.33;102384;1267;139730;-65
2024/01/30 00:47:26;;;;;;;45.80;27.50;;;;;;;0.35;86.91;101811.08;102497;1270;97816;-65
2024/01/30 00:49:53;;;;;;;47.10;27.90;;;;;;;0.36;86.97;101809.73;101761;1267;1003403;-65
2024/01/30 00:52:20;;;;;;;46.60;27.70;;;;;;;0.33;86.86;101810.16;102465;1268;107724;-65
2024/01/30 00:54:47;;;;;;;47.80;28.90;;;;;;;0.33;86.73;101813.23;102446;1267;97685;-65
2024/01/30 00:57:14;;;;;;;45.70;27.50;;;;;;;0.29;86.59;101811.39;101531;1268;1002751;-65
2024/01/30 00:59:41;;;;;;;47.70;26.90;;;;;;;0.25;86.82;101805.79;102502;1267;97837;-65
2024/01/30 01:02:08;;;;;;;44.20;25.70;;;;;;;0.23;86.59;101800.77;102364;1267;138736;-66
2024/01/30 01:04:35;;;;;;;45.20;25.40;;;;;;;0.24;86.78;101802.66;102366;1268;107912;-65
2024/01/30 01:07:02;;;;;;;43.50;25.10;;;;;;;0.24;86.80;101798.23;102513;1267;97838;-65
2024/01/30 01:09:29;;;;;;;42.40;25.90;;;;;;;0.30;86.80;101803.20;102321;1273;138067;-65
2024/01/30 01:11:56;;;;;;;43.20;26.80;;;;;;;0.31;86.72;101803.94;102497;1273;97713;-65
2024/01/30 01:14:23;;;;;;;46.10;27.70;;;;;;;0.33;86.70;101806.23;102307;1267;139722;-65
2024/01/30 01:16:50;;;;;;;45.90;29.10;;;;;;;0.33;86.70;101808.95;102448;1272;107443;-65
2024/01/30 01:19:16;;;;;;;42.70;26.10;;;;;;;0.32;86.51;101805.86;102436;1267;98093;-65
2024/01/30 01:21:43;;;;;;;42.90;25.80;;;;;;;0.32;86.60;101801.90;102246;1270;140459;-64
2024/01/30 01:24:10;;;;;;;41.50;25.90;;;;;;;0.32;86.48;101802.42;102478;1268;97828;-64
2024/01/30 01:26:37;;;;;;;45.70;26.20;;;;;;;0.33;86.49;101798.52;102327;1271;138609;-64
2024/01/30 01:29:09;;;;;;;46.40;27.00;;;;;;;0.36;86.52;101797.29;102413;1267;110361;-65
2024/01/30 01:31:39;;;;;;;45.70;28.10;;;;;;;0.37;86.36;101798.16;102523;1269;99028;-65
2024/01/30 01:34:06;;;;;;;42.50;27.30;;;;;;;0.35;86.11;101791.94;103237;1267;138682;-65
2024/01/30 01:36:33;;;;;;;47.10;29.10;;;;;;;0.35;86.15;101796.17;102492;1267;97695;-65
2024/01/30 01:39:00;;;;;;;52.90;33.30;;;;;;;0.32;86.13;101794.23;103040;1272;138514;-67
2024/01/30 01:41:30;;;;;;;49.70;29.40;;;;;;;0.25;86.19;101790.91;103251;1271;107716;-65
2024/01/30 01:43:57;;;;;;;50.20;29.20;;;;;;;0.21;86.41;101785.83;101674;1268;1002996;-65
2024/01/30 01:46:24;;;;;;;46.30;27.30;;;;;;;0.19;86.51;101780.60;102909;1267;107489;-65
2024/01/30 01:48:52;;;;;;;47.60;27.00;;;;;;;0.18;86.67;101779.85;102944;1268;97826;-64
2024/01/30 01:51:19;;;;;;;46.50;26.80;;;;;;;0.17;86.76;101775.58;102354;1268;139114;-64
2024/01/30 01:53:45;;;;;;;42.30;26.20;;;;;;;0.20;86.63;101775.69;102632;1268;107268;-65
2024/01/30 01:56:13;;;;;;;44.90;27.10;;;;;;;0.22;86.76;101776.27;103266;1267;139201;-65
2024/01/30 01:58:41;;;;;;;45.70;29.60;;;;;;;0.22;86.64;101770.12;102827;1272;108943;-65
2024/01/30 02:01:09;;;;;;;46.90;28.00;;;;;;;0.21;86.61;101768.21;103238;1267;97726;-65
2024/01/30 02:03:36;;;;;;;45.30;26.80;;;;;;;0.17;86.68;101763.92;102844;1268;137709;-65
2024/01/30 02:06:04;;;;;;;46.30;26.60;;;;;;;0.16;86.65;101765.23;102400;1267;109000;-64
2024/01/30 02:08:31;;;;;;;43.60;26.60;;;;;;;0.14;86.67;101762.96;102740;1267;138981;-65
2024/01/30 02:10:58;;;;;;;41.60;25.90;;;;;;;0.13;86.90;101760.89;102496;1271;107257;-65
2024/01/30 02:13:25;;;;;;;43.00;25.40;;;;;;;0.10;87.12;101761.82;102528;1268;99113;-64
2024/01/30 02:15:52;;;;;;;41.50;26.30;;;;;;;0.11;87.07;101756.03;102473;1268;138975;-65
2024/01/30 02:18:20;;;;;;;42.50;26.50;;;;;;;0.12;87.18;101759.14;102864;1273;107935;-65
2024/01/30 02:20:47;;;;;;;44.50;26.50;;;;;;;0.09;87.35;101752.20;102361;1267;139122;-66
2024/01/30 02:23:16;;;;;;;49.40;29.00;;;;;;;0.10;87.21;101751.22;101020;1268;1003003;-65
2024/01/30 02:25:44;;;;;;;50.50;28.40;;;;;;;0.08;87.18;101749.26;102992;1268;95837;-66
2024/01/30 02:28:11;;;;;;;47.50;27.60;;;;;;;0.06;87.33;101753.29;102444;1268;138222;-66
2024/01/30 02:30:38;;;;;;;44.40;27.00;;;;;;;0.04;87.36;101756.14;102429;1267;109298;-65
2024/01/30 02:33:06;;;;;;;45.60;27.60;;;;;;;-0.01;87.50;101750.82;102500;1267;138562;-64
2024/01/30 02:35:33;;;;;;;50.70;28.50;;;;;;;-0.03;87.75;101753.33;102883;1272;109263;-67
2024/01/30 02:38:00;;;;;;;45.10;28.00;;;;;;;-0.05;87.88;101759.77;102695;1273;97834;-64
2024/01/30 02:40:27;;;;;;;42.50;25.20;;;;;;;-0.08;87.98;101763.59;103013;1267;110474;-65
2024/01/30 02:42:54;;;;;;;41.80;24.50;;;;;;;-0.10;88.11;101762.16;102410;1267;108945;-64
2024/01/30 02:45:21;;;;;;;41.80;24.90;;;;;;;-0.09;88.24;101765.77;102347;1273;138875;-65
2024/01/30 02:47:47;;;;;;;42.00;24.70;;;;;;;-0.07;88.19;101761.73;102450;1273;108934;-65
2024/01/30 02:50:14;;;;;;;42.00;24.00;;;;;;;-0.05;87.95;101765.75;102321;1268;139093;-64
2024/01/30 02:52:43;;;;;;;43.90;26.00;;;;;;;-0.01;87.99;101769.65;102504;1267;111042;-64
2024/01/30 02:55:11;;;;;;;44.40;27.70;;;;;;;0.04;87.80;101764.15;102578;1269;108708;-65
2024/01/30 02:57:38;;;;;;;45.70;26.70;;;;;;;0.05;87.66;101761.98;102416;1267;139188;-65
2024/01/30 03:00:09;;;;;;;45.20;27.20;;;;;;;0.06;87.49;101762.35;102478;1270;108403;-65
2024/01/30 03:02:36;;;;;;;43.00;25.10;;;;;;;0.05;87.62;101760.09;102699;1267;138105;-65
2024/01/30 03:05:04;;;;;;;40.00;24.50;;;;;;;0.04;87.46;101760.92;102730;1267;111826;-66
2024/01/30 03:07:31;;;;;;;41.40;24.90;;;;;;;0.04;87.60;101755.44;103087;1267;108513;-65
2024/01/30 03:09:58;;;;;;;38.60;23.90;;;;;;;0.05;87.48;101751.38;102406;1268;139315;-66
2024/01/30 03:12:24;;;;;;;44.70;26.50;;;;;;;0.08;87.43;101756.96;102576;1270;108243;-65
2024/01/30 03:14:51;;;;;;;42.60;26.50;;;;;;;0.10;87.39;101753.60;102452;1267;138051;-65
2024/01/30 03:17:19;;;;;;;47.10;27.20;;;;;;;0.10;87.18;101756.34;102442;1273;111574;-66
2024/01/30 03:19:46;;;;;;;46.90;27.70;;;;;;;0.09;87.03;101754.77;102451;1272;108357;-65
2024/01/30 03:22:13;;;;;;;44.30;26.50;;;;;;;0.07;87.03;101755.02;102773;1268;139005;-65
2024/01/30 03:24:39;;;;;;;44.30;26.40;;;;;;;0.05;87.10;101756.67;102713;1268;107526;-66
2024/01/30 03:27:07;;;;;;;41.60;24.20;;;;;;;0.03;87.10;101751.83;102961;1267;139792;-66
2024/01/30 03:29:33;;;;;;;39.30;23.90;;;;;;;0.04;86.95;101758.16;102505;1267;111456;-66
2024/01/30 03:32:00;;;;;;;40.20;23.80;;;;;;;0.03;86.86;101757.31;102373;1268;138853;-66
2024/01/30 03:34:27;;;;;;;43.50;25.30;;;;;;;0.06;86.84;101755.17;102838;1272;97804;-66
2024/01/30 03:36:54;;;;;;;44.20;26.40;;;;;;;0.07;86.74;101753.67;103035;1272;106997;-66
2024/01/30 03:39:21;;;;;;;44.50;26.50;;;;;;;0.07;86.67;101751.64;102532;1267;137951;-65
2024/01/30 03:41:48;;;;;;;43.20;26.60;;;;;;;0.07;86.58;101744.42;101924;1268;1002904;-65
2024/01/30 03:44:15;;;;;;;44.00;27.70;;;;;;;0.02;86.55;101743.25;103106;1268;138851;-66
2024/01/30 03:46:41;;;;;;;45.90;27.10;;;;;;;-0.01;86.46;101742.98;102772;1268;98385;-66
2024/01/30 03:49:08;;;;;;;46.10;26.90;;;;;;;-0.04;86.63;101744.73;102501;1267;107591;-66
2024/01/30 03:51:35;;;;;;;47.10;27.40;;;;;;;-0.07;86.70;101744.45;102313;1267;140072;-66
2024/01/30 03:54:02;;;;;;;43.70;24.50;;;;;;;-0.11;86.69;101747.59;102605;1266;111314;-66
2024/01/30 03:56:29;;;;;;;40.60;23.50;;;;;;;-0.14;86.78;101741.67;103129;1268;139252;-66
2024/01/30 03:58:56;;;;;;;40.40;23.60;;;;;;;-0.15;86.76;101739.42;102709;1268;97793;-66
2024/01/30 04:01:23;;;;;;;42.10;24.10;;;;;;;-0.16;86.90;101740.08;102697;1270;108735;-66
2024/01/30 04:03:50;;;;;;;41.60;23.50;;;;;;;-0.15;86.82;101737.88;102339;1272;138936;-65
2024/01/30 04:06:17;;;;;;;40.30;24.10;;;;;;;-0.13;86.81;101736.74;102499;1267;111763;-66
2024/01/30 04:08:44;;;;;;;44.10;24.60;;;;;;;-0.13;86.81;101740.52;102319;1271;138127;-65
2024/01/30 04:11:11;;;;;;;41.30;25.50;;;;;;;-0.15;86.70;101733.26;102720;1267;97786;-66
2024/01/30 04:13:38;;;;;;;46.50;26.20;;;;;;;-0.16;86.65;101734.77;102575;1270;108426;-66
2024/01/30 04:16:06;;;;;;;45.70;26.80;;;;;;;-0.18;86.54;101738.42;102353;1273;138081;-66
2024/01/30 04:18:33;;;;;;;42.30;24.60;;;;;;;-0.23;86.68;101742.36;102649;1273;111131;-65
2024/01/30 04:21:00;;;;;;;42.60;23.40;;;;;;;-0.25;86.76;101741.08;102327;1267;140179;-66
2024/01/30 04:23:27;;;;;;;38.40;23.40;;;;;;;-0.26;86.74;101742.95;102501;1270;98574;-66
2024/01/30 04:25:54;;;;;;;39.10;22.60;;;;;;;-0.25;86.59;101748.60;102480;1273;107163;-66
2024/01/30 04:28:21;;;;;;;38.90;23.50;;;;;;;-0.23;86.72;101749.34;100998;1272;1003580;-65
2024/01/30 04:30:48;;;;;;;44.90;24.90;;;;;;;-0.21;86.78;101748.25;102574;1273;110932;-66
2024/01/30 04:33:15;;;;;;;39.70;25.10;;;;;;;-0.19;86.59;101747.09;102379;1273;138125;-65
2024/01/30 04:35:42;;;;;;;41.60;25.50;;;;;;;-0.19;86.50;101748.98;102639;1267;98255;-66
2024/01/30 04:38:08;;;;;;;46.50;26.40;;;;;;;-0.19;86.47;101748.14;102092;1267;1002845;-66
2024/01/30 04:40:35;;;;;;;42.20;25.90;;;;;;;-0.21;86.52;101747.89;102614;1267;97804;-67
2024/01/30 04:43:02;;;;;;;43.30;25.00;;;;;;;-0.26;86.37;101745.84;103178;1273;111777;-67
2024/01/30 04:45:29;;;;;;;39.10;23.40;;;;;;;-0.30;86.64;101743.15;102634;1267;138727;-65
2024/01/30 04:47:55;;;;;;;42.70;23.50;;;;;;;-0.34;86.51;101744.52;102717;1268;97809;-67
2024/01/30 04:50:22;;;;;;;39.50;23.70;;;;;;;-0.33;86.65;101738.59;102317;1272;138765;-67
2024/01/30 04:52:49;;;;;;;39.50;24.50;;;;;;;-0.32;86.64;101740.52;102486;1270;97825;-67
2024/01/30 04:55:16;;;;;;;43.90;26.80;;;;;;;-0.31;86.60;101737.12;102500;1267;111149;-67
2024/01/30 04:57:46;;;;;;;47.70;27.10;;;;;;;-0.32;86.53;101735.90;102294;1270;139214;-66
2024/01/30 05:00:15;;;;;;;46.10;28.40;;;;;;;-0.34;86.55;101736.86;102529;1272;98295;-67
2024/01/30 05:02:41;;;;;;;46.20;28.90;;;;;;;-0.36;86.63;101736.92;103266;1273;138370;-65
2024/01/30 05:05:09;;;;;;;45.60;27.10;;;;;;;-0.41;86.54;101738.14;102481;1273;97967;-65
2024/01/30 05:07:37;;;;;;;44.80;27.00;;;;;;;-0.43;86.67;101736.16;102634;1270;110441;-65
2024/01/30 05:10:04;;;;;;;46.00;26.10;;;;;;;-0.46;86.67;101737.42;102291;1271;139836;-66
2024/01/30 05:12:33;;;;;;;41.70;24.40;;;;;;;-0.50;86.92;101736.24;102926;1267;98343;-66
2024/01/30 05:14:59;;;;;;;43.20;25.00;;;;;;;-0.51;86.85;101734.34;102428;1272;138652;-66
2024/01/30 05:17:26;;;;;;;39.60;23.60;;;;;;;-0.51;87.01;101732.46;102439;1267;97796;-67
2024/01/30 05:19:53;;;;;;;40.50;24.20;;;;;;;-0.51;87.04;101735.39;102493;1273;111018;-67
2024/01/30 05:22:20;;;;;;;42.10;25.40;;;;;;;-0.47;87.11;101734.98;102329;1273;140362;-67
2024/01/30 05:24:47;;;;;;;42.10;26.20;;;;;;;-0.46;87.03;101737.92;102564;1277;97907;-67
2024/01/30 05:27:14;;;;;;;42.00;26.70;;;;;;;-0.46;87.03;101734.53;102416;1267;138675;-66
2024/01/30 05:29:41;;;;;;;43.00;26.00;;;;;;;-0.47;86.98;101732.61;102507;1267;97694;-66
2024/01/30 05:32:08;;;;;;;43.90;26.50;;;;;;;-0.48;87.00;101731.88;101669;1267;1003060;-66
2024/01/30 05:34:36;;;;;;;38.90;24.20;;;;;;;-0.51;86.86;101734.86;102442;1271;107677;-66
2024/01/30 05:37:04;;;;;;;40.50;22.90;;;;;;;-0.53;86.83;101735.33;102464;1273;99393;-66
2024/01/30 05:39:32;;;;;;;39.70;23.00;;;;;;;-0.52;87.00;101735.85;102893;1270;139617;-66
2024/01/30 05:41:59;;;;;;;42.90;23.70;;;;;;;-0.52;86.88;101737.06;102518;1273;97803;-66
2024/01/30 05:44:26;;;;;;;39.30;21.10;;;;;;;-0.50;86.90;101740.55;102434;1267;138808;-67
2024/01/30 05:46:53;;;;;;;39.40;23.60;;;;;;;-0.47;86.97;101742.69;102471;1269;107396;-66
2024/01/30 05:49:20;;;;;;;45.70;24.90;;;;;;;-0.43;86.76;101742.31;102441;1270;98440;-66
2024/01/30 05:51:47;;;;;;;38.30;24.30;;;;;;;-0.41;86.78;101741.71;102387;1272;138533;-66
2024/01/30 05:54:14;;;;;;;41.70;25.60;;;;;;;-0.39;86.63;101738.01;102560;1267;97809;-67
2024/01/30 05:56:43;;;;;;;46.20;26.90;;;;;;;-0.40;86.47;101730.98;102369;1267;137914;-66
2024/01/30 05:59:10;;;;;;;47.20;27.00;;;;;;;-0.41;86.45;101732.14;102488;1271;107405;-66
2024/01/30 06:01:37;;;;;;;42.50;25.80;;;;;;;-0.44;86.48;101732.88;102487;1270;97846;-66
2024/01/30 06:04:04;;;;;;;43.50;25.20;;;;;;;-0.48;86.60;101732.75;102360;1267;138990;-66
2024/01/30 06:06:31;;;;;;;38.90;22.80;;;;;;;-0.50;86.61;101739.52;102485;1267;98505;-66
2024/01/30 06:08:58;;;;;;;40.70;23.70;;;;;;;-0.50;86.75;101738.30;102370;1267;139107;-66
2024/01/30 06:11:25;;;;;;;38.60;23.50;;;;;;;-0.50;86.68;101741.57;102483;1267;107283;-66
2024/01/30 06:13:52;;;;;;;42.40;25.30;;;;;;;-0.47;86.72;101732.25;102433;1267;97843;-64
2024/01/30 06:16:20;;;;;;;42.60;25.10;;;;;;;-0.46;86.56;101730.94;102367;1267;138206;-65
2024/01/30 06:18:48;;;;;;;43.20;25.50;;;;;;;-0.46;86.76;101729.58;102457;1267;98521;-65
2024/01/30 06:21:15;;;;;;;47.70;26.60;;;;;;;-0.46;86.56;101734.88;101554;1273;1003100;-65
2024/01/30 06:23:42;;;;;;;48.60;25.20;;;;;;;-0.47;86.51;101734.30;102508;1272;108634;-66
2024/01/30 06:26:08;;;;;;;42.00;24.70;;;;;;;-0.50;86.60;101735.08;102397;1267;138977;-66
2024/01/30 06:28:35;;;;;;;37.60;22.50;;;;;;;-0.50;86.64;101739.36;102511;1272;107641;-66
2024/01/30 06:31:03;;;;;;;41.20;21.70;;;;;;;-0.48;86.74;101738.38;102562;1267;97806;-66
2024/01/30 06:33:30;;;;;;;39.70;23.80;;;;;;;-0.44;86.40;101736.64;102411;1267;138246;-65
2024/01/30 06:35:57;;;;;;;42.30;24.70;;;;;;;-0.42;86.26;101739.63;102424;1271;108767;-65
2024/01/30 06:38:24;;;;;;;40.20;24.50;;;;;;;-0.39;86.26;101738.88;102418;1267;138425;-65
2024/01/30 06:40:50;;;;;;;42.90;25.20;;;;;;;-0.35;86.24;101743.16;102446;1267;107237;-65
2024/01/30 06:43:17;;;;;;;42.60;25.80;;;;;;;-0.31;86.12;101743.79;101719;1270;1002713;-65
2024/01/30 06:45:44;;;;;;;42.40;25.50;;;;;;;-0.30;85.97;101742.64;102429;1267;138653;-64
2024/01/30 06:48:11;;;;;;;41.30;23.10;;;;;;;-0.27;86.00;101745.45;102357;1267;107653;-65
2024/01/30 06:50:38;;;;;;;39.60;22.00;;;;;;;-0.20;85.83;101742.65;102475;1269;139399;-65
2024/01/30 06:53:05;;;;;;;39.40;21.60;;;;;;;-0.07;85.93;101738.32;102347;1270;108371;-66
2024/01/30 06:55:32;;;;;;;38.00;22.20;;;;;;;0.12;85.61;101741.52;102674;1271;97879;-66
2024/01/30 06:57:59;;;;;;;40.80;24.30;;;;;;;0.34;85.25;101743.14;102375;1269;139901;-66
2024/01/30 07:00:26;;;;;;;38.50;24.00;;;;;;;0.55;84.94;101737.67;102409;1271;107015;-65
2024/01/30 07:02:53;;;;;;;40.00;23.70;;;;;;;0.74;84.19;101742.89;102374;1267;137926;-66
2024/01/30 07:05:21;;;;;;;40.30;25.00;;;;;;;0.85;83.60;101742.89;102454;1273;109552;-66
2024/01/30 07:07:48;;;;;;;41.00;24.70;;;;;;;0.96;83.15;101741.17;101754;1270;1002936;-60
2024/01/30 07:10:15;;;;;;;47.00;27.10;;;;;;;1.05;84.27;101740.11;102436;1267;138136;-62
2024/01/30 07:12:42;;;;;;;37.20;24.00;;;;;;;1.22;84.61;101740.79;102404;1267;107310;-62
2024/01/30 07:15:10;;;;;;;39.70;22.70;;;;;;;1.47;84.29;101737.40;102465;1267;139054;-61
2024/01/30 07:17:37;;;;;;;37.00;22.90;;;;;;;1.72;83.90;101740.69;102557;1267;107013;-61
2024/01/30 07:20:06;;;;;;;38.70;22.90;;;;;;;1.96;82.68;101742.02;102386;1271;138438;-61
2024/01/30 07:22:33;;;;;;;41.40;23.80;;;;;;;2.23;81.51;101743.75;102757;1267;112512;-66
2024/01/30 07:25:08;;;;;;;37.60;23.70;;;;;;;2.57;80.26;101744.61;102444;1273;107518;-65
2024/01/30 07:27:35;;;;;;;36.30;24.20;;;;;;;2.91;78.99;101746.95;102646;1272;138230;-66
2024/01/30 07:30:02;;;;;;;38.90;24.00;;;;;;;3.21;78.01;101747.48;102525;1270;107079;-66
2024/01/30 07:32:29;;;;;;;38.90;25.40;;;;;;;3.50;76.88;101745.52;102731;1268;138409;-66
2024/01/30 07:34:56;;;;;;;38.40;23.70;;;;;;;3.76;75.78;101743.95;102452;1267;110851;-66
2024/01/30 07:37:34;;;;;;;39.50;25.70;;;;;;;4.03;75.08;101737.24;102454;1268;107129;-66
2024/01/30 07:40:02;;;;;;;37.30;23.40;;;;;;;4.24;74.73;101740.90;102373;1267;139839;-65
2024/01/30 07:42:29;;;;;;;35.30;23.40;;;;;;;4.35;73.24;101743.52;102430;1270;108835;-65
2024/01/30 07:44:56;;;;;;;34.20;24.10;;;;;;;4.38;73.27;101740.80;102266;1267;138708;-65
2024/01/30 07:47:23;;;;;;;37.40;23.40;;;;;;;4.49;73.30;101736.87;102522;1270;112434;-65
2024/01/30 07:49:51;;;;;;;35.00;23.10;;;;;;;4.63;72.35;101735.67;102389;1271;107372;-65
2024/01/30 07:52:18;;;;;;;34.50;22.80;;;;;;;4.74;72.12;101739.33;102436;1267;137872;-66
2024/01/30 07:54:45;;;;;;;41.70;23.00;;;;;;;4.85;71.94;101743.80;102937;1267;107489;-65
2024/01/30 07:57:12;;;;;;;34.40;21.80;;;;;;;4.92;70.37;101739.76;102374;1270;138212;-66
2024/01/30 07:59:39;;;;;;;35.40;22.00;;;;;;;5.02;70.33;101739.23;102444;1267;111307;-65
2024/01/30 08:02:06;;;;;;;30.90;21.20;;;;;;;5.19;70.16;101734.98;102334;1268;138588;-65
2024/01/30 08:04:33;;;;;;;36.10;22.60;;;;;;;5.33;69.75;101735.85;102763;1272;97834;-65
2024/01/30 08:07:00;;;;;;;35.80;23.20;;;;;;;5.54;69.39;101731.98;102566;1267;107822;-65
2024/01/30 08:09:27;;;;;;;34.70;21.90;;;;;;;5.74;68.81;101727.73;102348;1267;138561;-65
2024/01/30 08:11:54;;;;;;;36.20;22.90;;;;;;;5.89;69.06;101732.56;102520;1267;112035;-65
2024/01/30 08:14:20;;;;;;;34.70;21.50;;;;;;;6.15;67.93;101731.98;102360;1267;138277;-65
2024/01/30 08:16:47;;;;;;;32.80;21.40;;;;;;;6.39;67.18;101733.59;102505;1267;98165;-66
2024/01/30 08:19:15;;;;;;;34.00;22.20;;;;;;;6.49;65.98;101728.50;102472;1267;107372;-66
2024/01/30 08:21:42;;;;;;;35.40;21.50;;;;;;;6.56;65.86;101727.69;102434;1267;138302;-65
2024/01/30 08:24:10;;;;;;;32.00;21.10;;;;;;;6.60;64.94;101722.70;102471;1267;112491;-65
2024/01/30 08:26:37;;;;;;;31.50;20.40;;;;;;;6.63;65.11;101720.65;102509;1267;138248;-65
2024/01/30 08:29:04;;;;;;;31.00;21.00;;;;;;;6.83;65.59;101715.43;102545;1267;97800;-66
2024/01/30 08:31:31;;;;;;;33.10;20.60;;;;;;;7.10;64.67;101712.48;102507;1270;107835;-65
2024/01/30 08:33:58;;;;;;;31.50;21.30;;;;;;;7.21;63.95;101712.72;102454;1271;139130;-65
2024/01/30 08:36:26;;;;;;;33.30;21.10;;;;;;;7.46;63.25;101707.47;102600;1267;111576;-65
2024/01/30 08:38:53;;;;;;;29.60;21.10;;;;;;;7.64;63.39;101704.23;102328;1267;137958;-66
2024/01/30 08:41:26;;;;;;;29.30;20.90;;;;;;;7.91;62.66;101704.32;102551;1267;97818;-66
2024/01/30 08:43:54;;;;;;;33.10;20.90;;;;;;;8.17;63.26;101704.52;102471;1267;108195;-67
2024/01/30 08:46:21;;;;;;;33.50;21.10;;;;;;;8.50;61.70;101708.21;102638;1267;140281;-66
2024/01/30 08:48:48;;;;;;;27.90;19.20;;;;;;;8.71;60.75;101707.67;102523;1267;111221;-67
2024/01/30 08:51:16;;;;;;;26.80;19.20;;;;;;;8.95;60.29;101713.01;102508;1267;137872;-67
2024/01/30 08:53:43;;;;;;;27.80;18.00;;;;;;;9.20;59.55;101711.39;102491;1267;97822;-66
2024/01/30 08:56:10;;;;;;;25.10;17.60;;;;;;;9.53;59.66;101711.27;102364;1267;138591;-66
2024/01/30 08:58:37;;;;;;;24.30;17.20;;;;;;;9.83;58.52;101710.41;102293;1268;97796;-67
2024/01/30 09:01:05;;;;;;;25.40;17.30;;;;;;;10.08;57.51;101710.95;102485;1267;112126;-67
2024/01/30 09:03:32;;;;;;;23.30;16.80;;;;;;;10.41;56.30;101706.91;102434;1270;138769;-66
2024/01/30 09:05:59;;;;;;;24.30;17.20;;;;;;;10.69;56.32;101701.96;102534;1270;97826;-66
2024/01/30 09:08:30;;;;;;;23.50;16.50;;;;;;;11.11;56.80;101698.22;102690;1267;138999;-66
2024/01/30 09:10:57;;;;;;;23.70;16.50;;;;;;;11.49;56.04;101698.65;102614;1268;97914;-65
2024/01/30 09:13:27;;;;;;;25.00;16.10;;;;;;;11.80;56.14;101695.64;102622;1270;111274;-66
2024/01/30 09:15:55;;;;;;;24.40;15.40;;;;;;;11.99;53.92;101694.83;102638;1267;138541;-68
2024/01/30 09:18:22;;;;;;;24.00;15.40;;;;;;;11.96;53.38;101695.77;102679;1267;97824;-67
2024/01/30 09:20:50;;;;;;;22.30;16.20;;;;;;;12.02;53.49;101690.09;102349;1267;138194;-67
2024/01/30 09:23:18;;;;;;;24.20;15.20;;;;;;;12.17;52.63;101687.60;102631;1271;97893;-67
2024/01/30 09:25:45;;;;;;;22.70;15.20;;;;;;;12.29;52.98;101691.77;102492;1268;111128;-68
2024/01/30 09:28:12;;;;;;;22.10;15.10;;;;;;;12.34;52.26;101689.23;102477;1267;138792;-68
2024/01/30 09:30:39;;;;;;;22.90;14.10;;;;;;;12.49;52.02;101687.77;102499;1267;97957;-68
2024/01/30 09:33:07;;;;;;;22.70;14.90;;;;;;;12.77;52.31;101682.90;102376;1267;139393;-69
2024/01/30 09:35:34;;;;;;;21.70;15.20;;;;;;;12.95;51.73;101679.95;102400;1267;97875;-68
2024/01/30 09:38:01;;;;;;;21.50;13.90;;;;;;;13.24;50.92;101677.84;102467;1270;138451;-67
2024/01/30 09:40:28;;;;;;;21.30;13.70;;;;;;;13.20;49.74;101677.38;102452;1267;108621;-68
2024/01/30 09:42:56;;;;;;;20.50;14.40;;;;;;;13.22;50.44;101670.19;102473;1267;99259;-66
2024/01/30 09:45:26;;;;;;;20.30;13.60;;;;;;;13.48;51.19;101677.15;102275;1267;138062;-66
2024/01/30 09:47:54;;;;;;;20.30;13.30;;;;;;;13.56;49.85;101676.45;102429;1267;98500;-66
2024/01/30 09:50:21;;;;;;;18.60;13.40;;;;;;;13.56;50.24;101672.09;103011;1270;138338;-65
2024/01/30 09:52:48;;;;;;;21.40;12.90;;;;;;;13.81;49.92;101671.18;102482;1267;108477;-66
2024/01/30 09:55:15;;;;;;;20.00;12.90;;;;;;;14.05;50.25;101671.48;102427;1267;98405;-65
2024/01/30 09:57:44;;;;;;;19.90;13.30;;;;;;;14.35;49.08;101669.89;102362;1267;138131;-66
2024/01/30 10:00:14;;;;;;;17.50;12.40;;;;;;;14.61;49.77;101667.69;102512;1269;97684;-66
2024/01/30 10:02:42;;;;;;;20.90;12.30;;;;;;;14.99;48.22;101662.27;102466;1268;139298;-67
2024/01/30 10:05:11;;;;;;;22.80;13.10;;;;;;;15.02;46.59;101661.98;102389;1268;107571;-64
2024/01/30 10:07:38;;;;;;;19.00;13.00;;;;;;;14.97;46.35;101655.85;102608;1267;98449;-65
2024/01/30 10:10:08;;;;;;;20.30;13.90;;;;;;;15.01;47.09;101656.09;102416;1270;139110;-71
2024/01/30 10:12:35;;;;;;;21.40;13.00;;;;;;;15.16;46.35;101651.63;103842;1267;95869;-65
2024/01/30 10:15:02;;;;;;;18.90;12.40;;;;;;;15.04;44.56;101650.05;102601;1267;138886;-64
2024/01/30 10:17:30;;;;;;;18.40;12.80;;;;;;;14.82;45.20;101651.16;102400;1267;108019;-63
2024/01/30 10:20:00;;;;;;;20.40;12.60;;;;;;;14.90;45.62;101645.02;102506;1267;97705;-63
2024/01/30 10:22:28;;;;;;;20.10;13.00;;;;;;;15.08;45.64;101644.67;102686;1267;108038;-64
2024/01/30 10:24:55;;;;;;;21.70;12.40;;;;;;;15.18;45.40;101640.02;103106;1272;95806;-63
2024/01/30 10:27:29;;;;;;;16.50;12.10;;;;;;;15.20;45.43;101640.46;102381;1267;138511;-64
2024/01/30 10:29:56;;;;;;;19.90;12.50;;;;;;;15.29;44.54;101638.27;102623;1272;108092;-63
2024/01/30 10:32:23;;;;;;;17.80;12.00;;;;;;;15.17;43.72;101634.25;102558;1267;138420;-71
2024/01/30 10:34:50;;;;;;;23.30;13.50;;;;;;;14.94;43.85;101631.08;102896;1267;107409;-70
2024/01/30 10:37:20;;;;;;;20.40;12.80;;;;;;;15.00;44.10;101626.34;102522;1267;97835;-71
2024/01/30 10:39:48;;;;;;;19.50;13.20;;;;;;;15.30;44.07;101625.29;102530;1270;138197;-70
2024/01/30 10:42:16;;;;;;;16.10;11.90;;;;;;;15.29;42.35;101624.27;102502;1267;107983;-72
2024/01/30 10:44:49;;;;;;;18.00;12.20;;;;;;;15.06;42.47;101615.98;102585;1267;138641;-72
2024/01/30 10:47:23;;;;;;;20.50;13.20;;;;;;;14.88;42.38;101616.34;102504;1267;108191;-72
2024/01/30 10:49:50;;;;;;;17.70;12.70;;;;;;;14.70;42.47;101613.88;102684;1267;97823;-70
2024/01/30 10:52:19;;;;;;;17.70;11.90;;;;;;;14.53;42.38;101611.16;102399;1270;138637;-70
2024/01/30 10:54:47;;;;;;;18.80;12.50;;;;;;;14.40;42.91;101611.85;102413;1273;107602;-70
2024/01/30 10:57:16;;;;;;;21.70;12.80;;;;;;;14.30;41.98;101610.52;102566;1267;138443;-70
2024/01/30 10:59:44;;;;;;;22.10;12.70;;;;;;;14.05;42.47;101606.62;102480;1267;108491;-71